sensor_id;sensor_type;location;lat;lon;timestamp;P1;durP1;ratioP1;P2;durP2;ratioP2
19946;SDS011;10135;50.702;7.276;2024-02-15T06:00:30;2.87;;;1.50;;
19946;SDS011;10135;50.702;7.276;2024-02-15T06:02:31;3.50;;;1.60;;
19946;SDS011;10135;50.702;7.276;2024-02-15T06:04:32;1.80;;;1.50;;
19946;SDS011;10135;50.702;7.276;2024-02-15T06:06:33;2.93;;;1.80;;
19946;SDS011;10135;50.702;7.276;2024-02-15T06:08:34;2.47;;;1.80;;
19946;SDS011;10135;50.702;7.276;2024-02-15T06:10:36;1.80;;;1.63;;
19946;SDS011;10135;50.702;7.276;2024-02-15T06:12:37;2.20;;;1.93;;
19946;SDS011;10135;50.702;7.276;2024-02-15T06:14:38;3.60;;;1.70;;
19946;SDS011;10135;50.702;7.276;2024-02-15T06:16:42;3.00;;;1.53;;
19946;SDS011;10135;50.702;7.276;2024-02-15T06:18:44;2.27;;;1.67;;
19946;SDS011;10135;50.702;7.276;2024-02-15T06:20:47;2.43;;;1.50;;
19946;SDS011;10135;50.702;7.276;2024-02-15T06:22:51;2.00;;;1.60;;
19946;SDS011;10135;50.702;7.276;2024-02-15T06:24:52;4.43;;;1.90;;
19946;SDS011;10135;50.702;7.276;2024-02-15T06:26:52;4.93;;;1.80;;
19946;SDS011;10135;50.702;7.276;2024-02-15T06:28:59;4.10;;;1.77;;
19946;SDS011;10135;50.702;7.276;2024-02-15T06:31:19;3.53;;;2.17;;
19946;SDS011;10135;50.702;7.276;2024-02-15T06:33:38;2.10;;;1.80;;
19946;SDS011;10135;50.702;7.276;2024-02-15T06:35:57;5.20;;;2.27;;
19946;SDS011;10135;50.702;7.276;2024-02-15T06:38:16;2.33;;;1.80;;
19946;SDS011;10135;50.702;7.276;2024-02-15T06:40:34;3.13;;;1.70;;
19946;SDS011;10135;50.702;7.276;2024-02-15T06:42:37;2.90;;;1.90;;
19946;SDS011;10135;50.702;7.276;2024-02-15T06:44:37;2.20;;;1.80;;
19946;SDS011;10135;50.702;7.276;2024-02-15T06:46:40;2.53;;;1.97;;
19946;SDS011;10135;50.702;7.276;2024-02-15T06:48:41;2.77;;;1.80;;
19946;SDS011;10135;50.702;7.276;2024-02-15T06:50:49;2.47;;;1.73;;
19946;SDS011;10135;50.702;7.276;2024-02-15T06:52:49;2.70;;;1.67;;
19946;SDS011;10135;50.702;7.276;2024-02-15T06:54:51;4.07;;;1.70;;
19946;SDS011;10135;50.702;7.276;2024-02-15T06:56:52;5.00;;;2.00;;
19946;SDS011;10135;50.702;7.276;2024-02-15T06:58:54;7.73;;;2.63;;
19946;SDS011;10135;50.702;7.276;2024-02-15T07:00:55;4.60;;;2.27;;
19946;SDS011;10135;50.702;7.276;2024-02-15T07:02:56;5.00;;;3.00;;
19946;SDS011;10135;50.702;7.276;2024-02-15T07:04:56;6.70;;;2.97;;
19946;SDS011;10135;50.702;7.276;2024-02-15T07:06:57;8.83;;;3.80;;
19946;SDS011;10135;50.702;7.276;2024-02-15T07:08:58;10.03;;;3.97;;
19946;SDS011;10135;50.702;7.276;2024-02-15T07:10:58;8.77;;;3.37;;
19946;SDS011;10135;50.702;7.276;2024-02-15T07:12:59;10.37;;;4.20;;
19946;SDS011;10135;50.702;7.276;2024-02-15T07:15:00;8.63;;;3.70;;
19946;SDS011;10135;50.702;7.276;2024-02-15T07:17:02;6.00;;;3.13;;
19946;SDS011;10135;50.702;7.276;2024-02-15T07:19:08;7.03;;;3.20;;
19946;SDS011;10135;50.702;7.276;2024-02-15T07:21:10;5.87;;;3.03;;
19946;SDS011;10135;50.702;7.276;2024-02-15T07:23:19;3.87;;;2.60;;
19946;SDS011;10135;50.702;7.276;2024-02-15T07:25:20;7.90;;;3.20;;
19946;SDS011;10135;50.702;7.276;2024-02-15T07:27:21;7.20;;;3.60;;
19946;SDS011;10135;50.702;7.276;2024-02-15T07:29:25;5.43;;;3.17;;
19946;SDS011;10135;50.702;7.276;2024-02-15T07:31:28;4.53;;;2.80;;
19946;SDS011;10135;50.702;7.276;2024-02-15T07:33:29;4.40;;;2.50;;
19946;SDS011;10135;50.702;7.276;2024-02-15T07:35:30;2.57;;;2.07;;
19946;SDS011;10135;50.702;7.276;2024-02-15T07:37:30;4.07;;;2.30;;
19946;SDS011;10135;50.702;7.276;2024-02-15T07:39:32;2.67;;;1.93;;
19946;SDS011;10135;50.702;7.276;2024-02-15T07:41:33;5.23;;;1.90;;
19946;SDS011;10135;50.702;7.276;2024-02-15T07:43:34;4.97;;;1.80;;
19946;SDS011;10135;50.702;7.276;2024-02-15T07:45:34;4.63;;;2.23;;
19946;SDS011;10135;50.702;7.276;2024-02-15T07:47:37;1.93;;;1.50;;
19946;SDS011;10135;50.702;7.276;2024-02-15T07:49:38;2.93;;;1.87;;
19946;SDS011;10135;50.702;7.276;2024-02-15T07:51:39;2.97;;;1.67;;
19946;SDS011;10135;50.702;7.276;2024-02-15T07:53:40;4.47;;;1.80;;
19946;SDS011;10135;50.702;7.276;2024-02-15T07:55:42;1.60;;;1.50;;
19946;SDS011;10135;50.702;7.276;2024-02-15T07:57:44;6.77;;;2.10;;
19946;SDS011;10135;50.702;7.276;2024-02-15T07:59:46;3.50;;;1.80;;
19946;SDS011;10135;50.702;7.276;2024-02-15T08:01:49;4.00;;;1.80;;
19946;SDS011;10135;50.702;7.276;2024-02-15T08:03:52;1.77;;;1.67;;
19946;SDS011;10135;50.702;7.276;2024-02-15T08:05:53;3.67;;;1.97;;
19946;SDS011;10135;50.702;7.276;2024-02-15T08:07:54;2.00;;;1.77;;
19946;SDS011;10135;50.702;7.276;2024-02-15T08:09:57;2.57;;;1.87;;
19946;SDS011;10135;50.702;7.276;2024-02-15T08:11:58;2.67;;;1.80;;
19946;SDS011;10135;50.702;7.276;2024-02-15T08:13:59;4.83;;;1.87;;
19946;SDS011;10135;50.702;7.276;2024-02-15T08:15:59;3.80;;;2.17;;
19946;SDS011;10135;50.702;7.276;2024-02-15T08:18:00;1.97;;;1.60;;
19946;SDS011;10135;50.702;7.276;2024-02-15T08:20:06;2.57;;;2.00;;
19946;SDS011;10135;50.702;7.276;2024-02-15T08:22:10;2.23;;;1.60;;
19946;SDS011;10135;50.702;7.276;2024-02-15T08:24:11;3.07;;;1.53;;
19946;SDS011;10135;50.702;7.276;2024-02-15T08:26:12;3.93;;;1.70;;
19946;SDS011;10135;50.702;7.276;2024-02-15T08:28:13;1.97;;;1.73;;
19946;SDS011;10135;50.702;7.276;2024-02-15T08:30:13;2.10;;;1.90;;
19946;SDS011;10135;50.702;7.276;2024-02-15T08:32:14;2.33;;;1.63;;
19946;SDS011;10135;50.702;7.276;2024-02-15T08:34:15;3.17;;;1.80;;
19946;SDS011;10135;50.702;7.276;2024-02-15T08:36:18;2.10;;;1.83;;
19946;SDS011;10135;50.702;7.276;2024-02-15T08:38:19;1.73;;;1.63;;
19946;SDS011;10135;50.702;7.276;2024-02-15T08:40:19;4.23;;;1.77;;
19946;SDS011;10135;50.702;7.276;2024-02-15T08:42:24;2.63;;;1.80;;
19946;SDS011;10135;50.702;7.276;2024-02-15T08:44:25;3.37;;;1.60;;
19946;SDS011;10135;50.702;7.276;2024-02-15T08:46:26;2.43;;;1.60;;
19946;SDS011;10135;50.702;7.276;2024-02-15T08:48:27;5.03;;;1.87;;
19946;SDS011;10135;50.702;7.276;2024-02-15T08:50:27;4.73;;;1.90;;
19946;SDS011;10135;50.702;7.276;2024-02-15T08:52:28;4.37;;;1.60;;
19946;SDS011;10135;50.702;7.276;2024-02-15T08:54:29;5.37;;;2.07;;
19946;SDS011;10135;50.702;7.276;2024-02-15T08:56:33;3.63;;;2.20;;
19946;SDS011;10135;50.702;7.276;2024-02-15T08:58:35;4.73;;;2.30;;
19946;SDS011;10135;50.702;7.276;2024-02-15T09:00:38;5.30;;;2.50;;
19946;SDS011;10135;50.702;7.276;2024-02-15T09:02:47;5.93;;;2.60;;
19946;SDS011;10135;50.702;7.276;2024-02-15T09:04:52;5.17;;;2.30;;
19946;SDS011;10135;50.702;7.276;2024-02-15T09:06:53;7.43;;;2.20;;
19946;SDS011;10135;50.702;7.276;2024-02-15T09:08:54;1.80;;;1.63;;
19946;SDS011;10135;50.702;7.276;2024-02-15T09:10:54;4.30;;;2.47;;
19946;SDS011;10135;50.702;7.276;2024-02-15T09:12:55;5.33;;;2.20;;
19946;SDS011;10135;50.702;7.276;2024-02-15T09:14:56;2.27;;;1.80;;
19946;SDS011;10135;50.702;7.276;2024-02-15T09:16:57;5.33;;;1.83;;
19946;SDS011;10135;50.702;7.276;2024-02-15T09:18:57;3.10;;;1.90;;
19946;SDS011;10135;50.702;7.276;2024-02-15T09:21:01;5.07;;;2.13;;
19946;SDS011;10135;50.702;7.276;2024-02-15T09:23:05;4.60;;;2.00;;
19946;SDS011;10135;50.702;7.276;2024-02-15T09:25:09;4.37;;;1.83;;
19946;SDS011;10135;50.702;7.276;2024-02-15T09:27:10;4.87;;;1.90;;
19946;SDS011;10135;50.702;7.276;2024-02-15T09:29:12;5.90;;;2.23;;
19946;SDS011;10135;50.702;7.276;2024-02-15T09:31:12;4.50;;;1.90;;
19946;SDS011;10135;50.702;7.276;2024-02-15T09:33:13;4.87;;;2.10;;
19946;SDS011;10135;50.702;7.276;2024-02-15T09:35:14;3.40;;;1.97;;
19946;SDS011;10135;50.702;7.276;2024-02-15T09:37:15;2.73;;;1.70;;
19946;SDS011;10135;50.702;7.276;2024-02-15T09:39:15;3.53;;;2.10;;
19946;SDS011;10135;50.702;7.276;2024-02-15T09:41:17;3.83;;;1.80;;
19946;SDS011;10135;50.702;7.276;2024-02-15T09:43:18;5.00;;;1.83;;
19946;SDS011;10135;50.702;7.276;2024-02-15T09:45:19;2.27;;;2.00;;
19946;SDS011;10135;50.702;7.276;2024-02-15T09:47:20;3.57;;;1.70;;
19946;SDS011;10135;50.702;7.276;2024-02-15T09:49:23;5.80;;;2.10;;
19946;SDS011;10135;50.702;7.276;2024-02-15T09:51:27;4.27;;;1.80;;
19946;SDS011;10135;50.702;7.276;2024-02-15T09:53:31;3.63;;;1.73;;
19946;SDS011;10135;50.702;7.276;2024-02-15T09:55:36;4.40;;;1.73;;
19946;SDS011;10135;50.702;7.276;2024-02-15T09:57:41;5.30;;;2.03;;
19946;SDS011;10135;50.702;7.276;2024-02-15T09:59:44;6.83;;;1.87;;
19946;SDS011;10135;50.702;7.276;2024-02-15T10:01:45;2.70;;;1.80;;
19946;SDS011;10135;50.702;7.276;2024-02-15T10:03:51;2.80;;;2.20;;
19946;SDS011;10135;50.702;7.276;2024-02-15T10:05:52;1.70;;;1.60;;
19946;SDS011;10135;50.702;7.276;2024-02-15T10:07:53;6.67;;;1.80;;
19946;SDS011;10135;50.702;7.276;2024-02-15T10:09:54;4.83;;;1.77;;
19946;SDS011;10135;50.702;7.276;2024-02-15T10:12:01;2.47;;;1.60;;
19946;SDS011;10135;50.702;7.276;2024-02-15T10:14:12;4.30;;;1.67;;
19946;SDS011;10135;50.702;7.276;2024-02-15T10:16:15;4.77;;;1.60;;
19946;SDS011;10135;50.702;7.276;2024-02-15T10:18:19;2.00;;;1.50;;
19946;SDS011;10135;50.702;7.276;2024-02-15T10:20:22;2.57;;;1.60;;
19946;SDS011;10135;50.702;7.276;2024-02-15T10:22:26;2.10;;;1.60;;
19946;SDS011;10135;50.702;7.276;2024-02-15T10:24:26;4.70;;;1.73;;
19946;SDS011;10135;50.702;7.276;2024-02-15T10:26:28;2.93;;;1.80;;
19946;SDS011;10135;50.702;7.276;2024-02-15T10:28:29;2.50;;;1.47;;
19946;SDS011;10135;50.702;7.276;2024-02-15T10:30:29;3.07;;;1.77;;
19946;SDS011;10135;50.702;7.276;2024-02-15T10:32:35;2.53;;;1.57;;
19946;SDS011;10135;50.702;7.276;2024-02-15T10:34:43;2.80;;;1.50;;
19946;SDS011;10135;50.702;7.276;2024-02-15T10:36:47;1.60;;;1.50;;
19946;SDS011;10135;50.702;7.276;2024-02-15T10:38:48;1.67;;;1.57;;
19946;SDS011;10135;50.702;7.276;2024-02-15T10:40:49;2.93;;;1.40;;
19946;SDS011;10135;50.702;7.276;2024-02-15T10:43:05;1.87;;;1.33;;
19946;SDS011;10135;50.702;7.276;2024-02-15T10:45:06;2.77;;;1.60;;
19946;SDS011;10135;50.702;7.276;2024-02-15T10:47:10;1.83;;;1.33;;
19946;SDS011;10135;50.702;7.276;2024-02-15T10:49:11;1.60;;;1.50;;
19946;SDS011;10135;50.702;7.276;2024-02-15T10:51:13;1.83;;;1.47;;
19946;SDS011;10135;50.702;7.276;2024-02-15T10:53:28;1.43;;;1.27;;
19946;SDS011;10135;50.702;7.276;2024-02-15T10:57:43;1.40;;;1.30;;
19946;SDS011;10135;50.702;7.276;2024-02-15T10:59:54;1.30;;;1.20;;
19946;SDS011;10135;50.702;7.276;2024-02-15T11:01:58;1.70;;;1.50;;
19946;SDS011;10135;50.702;7.276;2024-02-15T11:04:00;2.00;;;1.40;;
19946;SDS011;10135;50.702;7.276;2024-02-15T11:06:08;1.73;;;1.40;;
19946;SDS011;10135;50.702;7.276;2024-02-15T11:08:11;2.93;;;1.40;;
19946;SDS011;10135;50.702;7.276;2024-02-15T11:10:12;1.90;;;1.37;;
19946;SDS011;10135;50.702;7.276;2024-02-15T11:12:17;2.00;;;1.10;;
19946;SDS011;10135;50.702;7.276;2024-02-15T11:16:43;1.63;;;1.50;;
19946;SDS011;10135;50.702;7.276;2024-02-15T11:18:45;1.83;;;1.40;;
19946;SDS011;10135;50.702;7.276;2024-02-15T11:20:55;1.60;;;1.50;;
19946;SDS011;10135;50.702;7.276;2024-02-15T11:22:59;2.13;;;1.33;;
19946;SDS011;10135;50.702;7.276;2024-02-15T11:25:02;1.87;;;1.50;;
19946;SDS011;10135;50.702;7.276;2024-02-15T11:27:12;2.43;;;1.23;;
19946;SDS011;10135;50.702;7.276;2024-02-15T11:32:09;1.47;;;1.17;;
19946;SDS011;10135;50.702;7.276;2024-02-15T11:36:45;2.30;;;1.40;;
19946;SDS011;10135;50.702;7.276;2024-02-15T11:38:46;1.67;;;1.20;;
19946;SDS011;10135;50.702;7.276;2024-02-15T11:42:57;2.03;;;1.50;;
19946;SDS011;10135;50.702;7.276;2024-02-15T11:45:05;3.83;;;1.47;;
19946;SDS011;10135;50.702;7.276;2024-02-15T11:47:08;1.40;;;1.30;;
19946;SDS011;10135;50.702;7.276;2024-02-15T11:49:14;2.10;;;1.33;;
19946;SDS011;10135;50.702;7.276;2024-02-15T11:51:34;1.33;;;1.23;;
19946;SDS011;10135;50.702;7.276;2024-02-15T11:53:42;3.83;;;1.50;;
19946;SDS011;10135;50.702;7.276;2024-02-15T11:55:43;1.30;;;1.20;;
19946;SDS011;10135;50.702;7.276;2024-02-15T11:57:57;3.13;;;1.47;;
19946;SDS011;10135;50.702;7.276;2024-02-15T12:00:05;1.97;;;1.40;;
19946;SDS011;10135;50.702;7.276;2024-02-15T12:02:24;4.27;;;1.47;;
19946;SDS011;10135;50.702;7.276;2024-02-15T12:04:45;1.10;;;1.10;;
19946;SDS011;10135;50.702;7.276;2024-02-15T12:07:05;1.40;;;1.30;;
19946;SDS011;10135;50.702;7.276;2024-02-15T12:09:25;2.23;;;1.40;;
19946;SDS011;10135;50.702;7.276;2024-02-15T12:11:44;1.57;;;1.30;;
19946;SDS011;10135;50.702;7.276;2024-02-15T12:14:04;1.73;;;1.20;;
19946;SDS011;10135;50.702;7.276;2024-02-15T12:16:23;1.23;;;1.23;;
19946;SDS011;10135;50.702;7.276;2024-02-15T12:18:42;2.20;;;1.40;;
19946;SDS011;10135;50.702;7.276;2024-02-15T12:20:44;1.63;;;1.50;;
19946;SDS011;10135;50.702;7.276;2024-02-15T12:22:46;1.30;;;1.30;;
19946;SDS011;10135;50.702;7.276;2024-02-15T12:24:52;1.40;;;1.30;;
19946;SDS011;10135;50.702;7.276;2024-02-15T12:27:01;2.13;;;1.30;;
19946;SDS011;10135;50.702;7.276;2024-02-15T12:29:05;3.10;;;1.40;;
19946;SDS011;10135;50.702;7.276;2024-02-15T12:31:08;1.50;;;1.40;;
19946;SDS011;10135;50.702;7.276;2024-02-15T12:33:10;1.70;;;1.60;;
19946;SDS011;10135;50.702;7.276;2024-02-15T12:35:17;1.20;;;1.10;;
19946;SDS011;10135;50.702;7.276;2024-02-15T12:37:22;1.50;;;1.40;;
19946;SDS011;10135;50.702;7.276;2024-02-15T12:39:24;2.57;;;1.37;;
19946;SDS011;10135;50.702;7.276;2024-02-15T12:41:25;1.83;;;1.47;;
19946;SDS011;10135;50.702;7.276;2024-02-15T12:43:26;2.33;;;1.30;;
19946;SDS011;10135;50.702;7.276;2024-02-15T12:45:27;2.70;;;1.40;;
19946;SDS011;10135;50.702;7.276;2024-02-15T12:47:29;1.77;;;1.10;;
19946;SDS011;10135;50.702;7.276;2024-02-15T12:49:31;2.33;;;1.30;;
19946;SDS011;10135;50.702;7.276;2024-02-15T12:51:34;1.30;;;1.20;;
19946;SDS011;10135;50.702;7.276;2024-02-15T12:53:35;1.93;;;1.50;;
19946;SDS011;10135;50.702;7.276;2024-02-15T12:55:36;1.47;;;1.27;;
19946;SDS011;10135;50.702;7.276;2024-02-15T12:57:39;1.20;;;1.10;;
19946;SDS011;10135;50.702;7.276;2024-02-15T12:59:42;2.50;;;1.63;;
19946;SDS011;10135;50.702;7.276;2024-02-15T13:01:43;2.27;;;1.50;;
19946;SDS011;10135;50.702;7.276;2024-02-15T13:03:44;2.40;;;1.47;;
19946;SDS011;10135;50.702;7.276;2024-02-15T13:05:45;1.20;;;1.10;;
19946;SDS011;10135;50.702;7.276;2024-02-15T13:07:46;3.03;;;1.13;;
19946;SDS011;10135;50.702;7.276;2024-02-15T13:09:48;2.97;;;1.43;;
19946;SDS011;10135;50.702;7.276;2024-02-15T13:11:49;2.35;;;1.30;;
19946;SDS011;10135;50.702;7.276;2024-02-15T13:13:50;1.23;;;1.17;;
19946;SDS011;10135;50.702;7.276;2024-02-15T13:15:51;8.53;;;1.40;;
19946;SDS011;10135;50.702;7.276;2024-02-15T13:17:55;2.70;;;1.30;;
19946;SDS011;10135;50.702;7.276;2024-02-15T13:19:56;1.13;;;1.10;;
19946;SDS011;10135;50.702;7.276;2024-02-15T13:22:02;2.27;;;1.20;;
19946;SDS011;10135;50.702;7.276;2024-02-15T13:24:03;3.27;;;1.50;;
19946;SDS011;10135;50.702;7.276;2024-02-15T13:26:04;2.97;;;2.07;;
19946;SDS011;10135;50.702;7.276;2024-02-15T13:28:05;2.75;;;1.92;;
19946;SDS011;10135;50.702;7.276;2024-02-15T13:30:07;4.43;;;2.67;;
19946;SDS011;10135;50.702;7.276;2024-02-15T13:32:08;3.00;;;2.00;;
19946;SDS011;10135;50.702;7.276;2024-02-15T13:34:12;1.83;;;1.73;;
19946;SDS011;10135;50.702;7.276;2024-02-15T13:36:12;11.13;;;4.20;;
19946;SDS011;10135;50.702;7.276;2024-02-15T13:38:15;18.60;;;9.33;;
19946;SDS011;10135;50.702;7.276;2024-02-15T13:40:22;10.73;;;5.73;;
19946;SDS011;10135;50.702;7.276;2024-02-15T13:42:24;7.43;;;4.63;;
19946;SDS011;10135;50.702;7.276;2024-02-15T13:44:25;7.57;;;5.03;;
19946;SDS011;10135;50.702;7.276;2024-02-15T13:46:26;3.20;;;2.93;;
19946;SDS011;10135;50.702;7.276;2024-02-15T13:48:29;4.33;;;2.80;;
19946;SDS011;10135;50.702;7.276;2024-02-15T13:50:31;4.93;;;3.13;;
19946;SDS011;10135;50.702;7.276;2024-02-15T13:52:32;4.23;;;3.03;;
19946;SDS011;10135;50.702;7.276;2024-02-15T13:54:34;3.27;;;1.90;;
19946;SDS011;10135;50.702;7.276;2024-02-15T13:56:35;2.43;;;2.23;;
19946;SDS011;10135;50.702;7.276;2024-02-15T13:58:35;2.63;;;1.80;;
19946;SDS011;10135;50.702;7.276;2024-02-15T14:00:36;1.80;;;1.70;;
19946;SDS011;10135;50.702;7.276;2024-02-15T14:02:37;1.80;;;1.70;;
19946;SDS011;10135;50.702;7.276;2024-02-15T14:04:38;1.87;;;1.30;;
19946;SDS011;10135;50.702;7.276;2024-02-15T14:06:38;5.67;;;3.60;;
19946;SDS011;10135;50.702;7.276;2024-02-15T14:08:40;4.10;;;3.37;;
19946;SDS011;10135;50.702;7.276;2024-02-15T14:10:40;2.60;;;2.40;;
19946;SDS011;10135;50.702;7.276;2024-02-15T14:12:41;8.00;;;4.87;;
19946;SDS011;10135;50.702;7.276;2024-02-15T14:14:42;3.53;;;3.20;;
19946;SDS011;10135;50.702;7.276;2024-02-15T14:16:43;3.87;;;2.70;;
19946;SDS011;10135;50.702;7.276;2024-02-15T14:18:43;4.47;;;2.90;;
19946;SDS011;10135;50.702;7.276;2024-02-15T14:20:45;4.33;;;2.80;;
19946;SDS011;10135;50.702;7.276;2024-02-15T14:22:49;2.87;;;2.30;;
19946;SDS011;10135;50.702;7.276;2024-02-15T14:24:57;2.43;;;2.07;;
19946;SDS011;10135;50.702;7.276;2024-02-15T14:26:58;2.47;;;2.20;;
19946;SDS011;10135;50.702;7.276;2024-02-15T14:28:58;1.80;;;1.70;;
19946;SDS011;10135;50.702;7.276;2024-02-15T14:31:03;2.23;;;2.03;;
19946;SDS011;10135;50.702;7.276;2024-02-15T14:33:22;1.73;;;1.63;;
19946;SDS011;10135;50.702;7.276;2024-02-15T14:35:24;1.50;;;1.40;;
19946;SDS011;10135;50.702;7.276;2024-02-15T14:37:24;1.47;;;1.37;;
19946;SDS011;10135;50.702;7.276;2024-02-15T14:39:25;1.67;;;1.40;;
19946;SDS011;10135;50.702;7.276;2024-02-15T14:41:26;2.20;;;1.50;;
19946;SDS011;10135;50.702;7.276;2024-02-15T14:43:28;1.60;;;1.50;;
19946;SDS011;10135;50.702;7.276;2024-02-15T14:45:28;1.50;;;1.40;;
19946;SDS011;10135;50.702;7.276;2024-02-15T14:47:30;1.57;;;1.27;;
19946;SDS011;10135;50.702;7.276;2024-02-15T14:49:30;1.10;;;1.10;;
19946;SDS011;10135;50.702;7.276;2024-02-15T14:51:31;4.40;;;1.30;;
19946;SDS011;10135;50.702;7.276;2024-02-15T14:53:34;1.63;;;1.20;;
19946;SDS011;10135;50.702;7.276;2024-02-15T14:55:35;1.40;;;1.00;;
19946;SDS011;10135;50.702;7.276;2024-02-15T14:57:41;1.37;;;1.27;;
19946;SDS011;10135;50.702;7.276;2024-02-15T14:59:43;2.87;;;1.20;;
19946;SDS011;10135;50.702;7.276;2024-02-15T15:01:43;1.40;;;1.27;;
19946;SDS011;10135;50.702;7.276;2024-02-15T15:03:52;2.33;;;1.33;;
19946;SDS011;10135;50.702;7.276;2024-02-15T15:05:55;1.67;;;1.20;;
19946;SDS011;10135;50.702;7.276;2024-02-15T15:08:14;1.73;;;1.10;;
19946;SDS011;10135;50.702;7.276;2024-02-15T15:10:33;3.33;;;1.20;;
19946;SDS011;10135;50.702;7.276;2024-02-15T15:12:52;3.30;;;1.03;;
19946;SDS011;10135;50.702;7.276;2024-02-15T15:14:52;1.40;;;1.30;;
19946;SDS011;10135;50.702;7.276;2024-02-15T15:16:55;1.10;;;1.00;;
19946;SDS011;10135;50.702;7.276;2024-02-15T15:18:56;3.00;;;1.30;;
19946;SDS011;10135;50.702;7.276;2024-02-15T15:20:57;1.30;;;1.20;;
19946;SDS011;10135;50.702;7.276;2024-02-15T15:22:59;1.23;;;1.23;;
19946;SDS011;10135;50.702;7.276;2024-02-15T15:25:00;4.70;;;1.20;;
19946;SDS011;10135;50.702;7.276;2024-02-15T15:27:01;1.40;;;1.30;;
19946;SDS011;10135;50.702;7.276;2024-02-15T15:29:04;3.53;;;1.30;;
19946;SDS011;10135;50.702;7.276;2024-02-15T15:31:06;1.60;;;1.30;;
19946;SDS011;10135;50.702;7.276;2024-02-15T15:33:07;1.17;;;1.10;;
19946;SDS011;10135;50.702;7.276;2024-02-15T15:35:09;2.20;;;1.30;;
19946;SDS011;10135;50.702;7.276;2024-02-15T15:37:09;1.30;;;1.20;;
19946;SDS011;10135;50.702;7.276;2024-02-15T15:39:12;1.10;;;1.10;;
19946;SDS011;10135;50.702;7.276;2024-02-15T15:41:12;2.83;;;1.53;;
19946;SDS011;10135;50.702;7.276;2024-02-15T15:43:13;3.40;;;1.00;;
19946;SDS011;10135;50.702;7.276;2024-02-15T15:45:14;1.90;;;1.20;;
19946;SDS011;10135;50.702;7.276;2024-02-15T15:47:15;3.50;;;1.40;;
19946;SDS011;10135;50.702;7.276;2024-02-15T15:49:16;2.83;;;1.30;;
19946;SDS011;10135;50.702;7.276;2024-02-15T15:51:16;1.20;;;1.10;;
19946;SDS011;10135;50.702;7.276;2024-02-15T15:53:17;1.80;;;1.30;;
19946;SDS011;10135;50.702;7.276;2024-02-15T15:55:19;1.50;;;1.20;;
19946;SDS011;10135;50.702;7.276;2024-02-15T15:57:20;2.67;;;1.57;;
19946;SDS011;10135;50.702;7.276;2024-02-15T15:59:21;1.87;;;1.37;;
19946;SDS011;10135;50.702;7.276;2024-02-15T16:01:21;1.80;;;1.23;;
19946;SDS011;10135;50.702;7.276;2024-02-15T16:03:22;3.27;;;1.37;;
19946;SDS011;10135;50.702;7.276;2024-02-15T16:05:22;1.37;;;1.20;;
19946;SDS011;10135;50.702;7.276;2024-02-15T16:07:26;3.37;;;1.17;;
19946;SDS011;10135;50.702;7.276;2024-02-15T16:09:27;1.67;;;1.40;;
19946;SDS011;10135;50.702;7.276;2024-02-15T16:11:27;1.63;;;1.23;;
19946;SDS011;10135;50.702;7.276;2024-02-15T16:13:28;1.57;;;1.20;;
19946;SDS011;10135;50.702;7.276;2024-02-15T16:15:29;1.40;;;1.30;;
19946;SDS011;10135;50.702;7.276;2024-02-15T16:17:30;1.57;;;1.47;;
19946;SDS011;10135;50.702;7.276;2024-02-15T16:19:35;1.43;;;1.27;;
19946;SDS011;10135;50.702;7.276;2024-02-15T16:21:36;3.30;;;1.30;;
19946;SDS011;10135;50.702;7.276;2024-02-15T16:23:38;1.40;;;1.30;;
19946;SDS011;10135;50.702;7.276;2024-02-15T16:25:39;2.27;;;1.13;;
19946;SDS011;10135;50.702;7.276;2024-02-15T16:27:40;1.90;;;1.10;;
19946;SDS011;10135;50.702;7.276;2024-02-15T16:29:46;1.73;;;1.30;;
19946;SDS011;10135;50.702;7.276;2024-02-15T16:31:46;3.50;;;1.40;;
19946;SDS011;10135;50.702;7.276;2024-02-15T16:33:47;2.20;;;1.43;;
19946;SDS011;10135;50.702;7.276;2024-02-15T16:35:47;2.20;;;1.20;;
19946;SDS011;10135;50.702;7.276;2024-02-15T16:37:48;2.50;;;1.70;;
19946;SDS011;10135;50.702;7.276;2024-02-15T16:39:49;2.40;;;1.43;;
19946;SDS011;10135;50.702;7.276;2024-02-15T16:41:53;2.97;;;1.60;;
19946;SDS011;10135;50.702;7.276;2024-02-15T16:43:54;1.60;;;1.40;;
19946;SDS011;10135;50.702;7.276;2024-02-15T16:45:57;2.50;;;1.40;;
19946;SDS011;10135;50.702;7.276;2024-02-15T16:47:58;2.27;;;1.57;;
19946;SDS011;10135;50.702;7.276;2024-02-15T16:50:00;2.23;;;1.40;;
19946;SDS011;10135;50.702;7.276;2024-02-15T16:52:02;1.90;;;1.53;;
19946;SDS011;10135;50.702;7.276;2024-02-15T16:54:03;1.27;;;1.20;;
19946;SDS011;10135;50.702;7.276;2024-02-15T16:56:05;1.67;;;1.43;;
19946;SDS011;10135;50.702;7.276;2024-02-15T16:58:07;1.87;;;1.50;;
19946;SDS011;10135;50.702;7.276;2024-02-15T17:00:10;2.30;;;2.10;;
19946;SDS011;10135;50.702;7.276;2024-02-15T17:02:12;2.30;;;1.80;;
19946;SDS011;10135;50.702;7.276;2024-02-15T17:04:13;3.00;;;1.67;;
19946;SDS011;10135;50.702;7.276;2024-02-15T17:06:16;2.53;;;1.60;;
19946;SDS011;10135;50.702;7.276;2024-02-15T17:08:17;1.73;;;1.43;;
19946;SDS011;10135;50.702;7.276;2024-02-15T17:10:17;1.77;;;1.50;;
19946;SDS011;10135;50.702;7.276;2024-02-15T17:12:18;2.57;;;1.77;;
19946;SDS011;10135;50.702;7.276;2024-02-15T17:14:19;3.77;;;1.80;;
19946;SDS011;10135;50.702;7.276;2024-02-15T17:16:20;1.67;;;1.50;;
19946;SDS011;10135;50.702;7.276;2024-02-15T17:18:21;2.20;;;1.30;;
19946;SDS011;10135;50.702;7.276;2024-02-15T17:20:22;1.60;;;1.50;;
19946;SDS011;10135;50.702;7.276;2024-02-15T17:22:25;2.67;;;1.40;;
19946;SDS011;10135;50.702;7.276;2024-02-15T17:24:27;2.70;;;1.70;;
19946;SDS011;10135;50.702;7.276;2024-02-15T17:26:29;3.10;;;1.73;;
19946;SDS011;10135;50.702;7.276;2024-02-15T17:28:29;3.60;;;1.30;;
19946;SDS011;10135;50.702;7.276;2024-02-15T17:30:31;2.00;;;1.70;;
19946;SDS011;10135;50.702;7.276;2024-02-15T17:32:31;4.13;;;1.60;;
19946;SDS011;10135;50.702;7.276;2024-02-15T17:34:32;1.93;;;1.40;;
19946;SDS011;10135;50.702;7.276;2024-02-15T17:36:33;2.70;;;1.50;;
19946;SDS011;10135;50.702;7.276;2024-02-15T17:38:33;2.73;;;1.67;;
19946;SDS011;10135;50.702;7.276;2024-02-15T17:40:35;1.87;;;1.63;;
19946;SDS011;10135;50.702;7.276;2024-02-15T17:42:36;2.30;;;1.40;;
19946;SDS011;10135;50.702;7.276;2024-02-15T17:44:42;1.40;;;1.27;;
19946;SDS011;10135;50.702;7.276;2024-02-15T17:46:44;1.47;;;1.37;;
19946;SDS011;10135;50.702;7.276;2024-02-15T17:48:46;2.30;;;1.60;;
19946;SDS011;10135;50.702;7.276;2024-02-15T17:50:47;2.10;;;1.50;;
19946;SDS011;10135;50.702;7.276;2024-02-15T17:52:49;1.40;;;1.30;;
19946;SDS011;10135;50.702;7.276;2024-02-15T17:54:50;1.43;;;1.30;;
19946;SDS011;10135;50.702;7.276;2024-02-15T17:56:51;1.60;;;1.50;;
19946;SDS011;10135;50.702;7.276;2024-02-15T17:58:53;2.13;;;1.43;;
19946;SDS011;10135;50.702;7.276;2024-02-15T18:00:54;2.53;;;1.80;;
19946;SDS011;10135;50.702;7.276;2024-02-15T18:02:55;4.20;;;1.63;;
19946;SDS011;10135;50.702;7.276;2024-02-15T18:04:56;4.60;;;1.70;;
19946;SDS011;10135;50.702;7.276;2024-02-15T18:06:56;1.83;;;1.70;;
19946;SDS011;10135;50.702;7.276;2024-02-15T18:08:57;1.63;;;1.53;;
19946;SDS011;10135;50.702;7.276;2024-02-15T18:10:57;2.10;;;1.60;;
19946;SDS011;10135;50.702;7.276;2024-02-15T18:13:00;2.33;;;1.40;;
19946;SDS011;10135;50.702;7.276;2024-02-15T18:15:00;2.40;;;1.50;;
19946;SDS011;10135;50.702;7.276;2024-02-15T18:17:01;3.20;;;1.33;;
19946;SDS011;10135;50.702;7.276;2024-02-15T18:19:02;1.90;;;1.40;;
19946;SDS011;10135;50.702;7.276;2024-02-15T18:21:04;3.17;;;1.40;;
19946;SDS011;10135;50.702;7.276;2024-02-15T18:23:05;1.30;;;1.20;;
19946;SDS011;10135;50.702;7.276;2024-02-15T18:25:08;1.67;;;1.40;;
19946;SDS011;10135;50.702;7.276;2024-02-15T18:27:09;2.20;;;1.40;;
19946;SDS011;10135;50.702;7.276;2024-02-15T18:29:10;2.37;;;1.13;;
19946;SDS011;10135;50.702;7.276;2024-02-15T18:31:13;1.60;;;1.50;;
19946;SDS011;10135;50.702;7.276;2024-02-15T18:33:14;2.50;;;1.20;;